Etusivu
METAR-TAF:

METAR-TAF

Lentoasemat :

F 7 Såtenäs

Såtenäs, Ruotsi

Leveyspiiri: 58-26N, Pituuspiiri: 012-42E, korkeus merenpinnasta: 54 m

Tämänhetkinen sää

Tämä raportti tehtiin 25 minuuttia sitten, kello 19.50 UTC
Tuuli 8 kn idästä
Lämpötila 0°C
Kosteus 100%
Ilmanpaine 1001 hPa
Näkyvyys: 2000 m
lumisadetta

METAR: ESIB 031950Z 10008KT 2000 SN VV007 00/M00 Q1001

Aika: 21:15 (20:15 UTC)

Sääennuste

Tämä raportti tehtiin 2 tuntia ja 45 minuuttia sitten, kello 17.30 UTC
Ennuste voimassa 03. päivästä klo 18 UTC - 03. päivään klo 21 UTC
Tuuli 12 kn etelästä/kaakosta
Näkyvyys: 8000 m
Hajonneita pilviä 1700 ft:n korkeudessa
Todennäköisyys 30%
03. päivästä klo 18 UTC - 03. päivään klo 21 UTC
Näkyvyys: 1500 m
500 ft:n korkeudessa
lumisadetta, sadetta

TAF: ESIB 031730Z 0318/0321 15012KT 8000 BKN017 PROB30 0318/0321 1500 SNRA VV005 RMK MIL

Säähavainnot ja -ennusteet yli 4000 lentoasemalta (METAR- ja TAF-raportit).

Käytössä olevat sääasemat on merkitty karttaan keltaisilla ja punaisilla pisteillä.

Aseta hiiri pisteen päälle nähdäksesi sääaseman nimen.

Klikkaa sitten nähdäksesi säähavainnot ja -ennusteet.

Kartan vaihtaminen: klikkaa mustalla rastilla varustettuja vihreitä pisteitä, niin voit zoomata sisään; viivalla varustettua vihreää pistettä, niin voit zoomata ulos tai vihreitä nuolia, niin pääset viereisille kartoille.


METAR-TAF: